createdAt,value
2022-08-03T03:16:57.693Z,14.20
2022-08-03T03:19:27.272Z,14.10
2022-08-03T03:21:56.602Z,14.20
2022-08-03T03:24:24.849Z,14.30
2022-08-03T03:26:53.426Z,14.50
2022-08-03T03:29:22.181Z,14.40
2022-08-03T03:31:50.646Z,14.50
2022-08-03T03:34:20.918Z,14.50
2022-08-03T03:36:49.566Z,14.60
2022-08-03T03:39:17.680Z,14.60
2022-08-03T03:41:46.094Z,14.70
2022-08-03T03:44:14.476Z,14.80
2022-08-03T03:46:42.745Z,14.80
2022-08-03T03:49:12.669Z,14.90
2022-08-03T03:51:42.198Z,14.90
2022-08-03T03:54:10.319Z,15.00
2022-08-03T03:56:38.787Z,15.10
2022-08-03T03:59:06.973Z,15.20
2022-08-03T04:01:35.190Z,15.30
2022-08-03T04:04:23.398Z,15.30
2022-08-03T04:07:10.089Z,15.40
2022-08-03T04:09:59.801Z,15.40
2022-08-03T04:12:39.261Z,15.60
2022-08-03T04:15:20.486Z,15.70
2022-08-03T04:17:50.322Z,15.70
2022-08-03T04:20:21.755Z,15.80
2022-08-03T04:22:53.822Z,15.80
2022-08-03T04:25:26.141Z,16.10
2022-08-03T04:28:07.922Z,16.00
2022-08-03T04:30:49.023Z,16.10
2022-08-03T04:33:18.666Z,16.20
2022-08-03T04:35:58.451Z,16.40
2022-08-03T04:38:34.588Z,16.50
2022-08-03T04:41:03.085Z,16.70
2022-08-03T04:43:34.610Z,16.90
2022-08-03T04:46:04.044Z,17.00
2022-08-03T04:48:32.321Z,17.10
2022-08-03T04:51:04.391Z,17.30
2022-08-03T04:53:34.024Z,17.50
2022-08-03T04:56:06.585Z,17.70
2022-08-03T04:58:34.750Z,17.90
2022-08-03T05:01:03.221Z,18.10
2022-08-03T05:03:32.665Z,18.20
2022-08-03T05:06:09.782Z,18.40
2022-08-03T05:08:46.053Z,18.60
2022-08-03T05:11:15.574Z,18.80
2022-08-03T05:13:43.836Z,18.90
2022-08-03T05:16:12.442Z,19.20
2022-08-03T05:18:40.598Z,19.10
2022-08-03T05:21:09.434Z,19.20
2022-08-03T05:23:37.972Z,19.40
2022-08-03T05:26:07.444Z,19.40
2022-08-03T05:28:35.604Z,19.60
2022-08-03T05:31:03.842Z,19.60
2022-08-03T05:33:32.030Z,19.70
2022-08-03T05:36:04.219Z,19.90
2022-08-03T05:38:34.628Z,20.00
2022-08-03T05:41:21.760Z,20.30
2022-08-03T05:43:54.854Z,20.50
2022-08-03T05:46:23.755Z,20.50
2022-08-03T05:48:52.244Z,20.60
2022-08-03T05:51:20.796Z,20.60
2022-08-03T05:53:48.994Z,20.80
2022-08-03T05:56:17.264Z,20.70
2022-08-03T05:58:47.220Z,20.60
2022-08-03T06:01:18.184Z,20.60
2022-08-03T06:03:46.508Z,20.70
2022-08-03T06:06:14.727Z,20.70
2022-08-03T06:08:43.995Z,20.80
2022-08-03T06:11:12.462Z,20.70
2022-08-03T06:13:41.282Z,20.80
2022-08-03T06:16:09.853Z,20.80
2022-08-03T06:18:41.559Z,20.80
2022-08-03T06:21:15.319Z,20.90
2022-08-03T06:23:54.055Z,21.10
2022-08-03T06:26:28.797Z,21.30
2022-08-03T06:28:57.271Z,21.40
2022-08-03T06:31:32.916Z,21.50
2022-08-03T06:34:33.509Z,21.50
2022-08-03T06:36:58.564Z,21.60
2022-08-03T06:39:30.563Z,21.60
2022-08-03T06:41:59.058Z,21.60
2022-08-03T06:44:27.212Z,21.60
2022-08-03T06:46:55.374Z,21.60
2022-08-03T06:49:24.996Z,21.60
2022-08-03T06:52:03.348Z,21.60
2022-08-03T06:54:33.483Z,21.40
2022-08-03T06:57:01.967Z,21.40
2022-08-03T07:00:10.411Z,21.40
2022-08-03T07:02:20.399Z,21.40
2022-08-03T07:04:51.032Z,21.40
2022-08-03T07:07:19.528Z,21.40
2022-08-03T07:09:57.767Z,21.40
2022-08-03T07:12:27.601Z,21.50
2022-08-03T07:15:00.359Z,21.70
2022-08-03T07:17:31.001Z,21.70
2022-08-03T07:20:01.709Z,21.80
2022-08-03T07:22:30.161Z,21.90
2022-08-03T07:24:58.649Z,22.20
2022-08-03T07:27:28.661Z,22.20
2022-08-03T07:29:57.328Z,22.30
2022-08-03T07:32:25.841Z,22.60
2022-08-03T07:34:59.900Z,22.80
2022-08-03T07:37:30.574Z,23.40
2022-08-03T07:39:58.883Z,23.60
2022-08-03T07:42:27.159Z,23.40
2022-08-03T07:44:55.287Z,23.40
2022-08-03T07:47:25.650Z,23.10
2022-08-03T07:50:03.371Z,23.00
2022-08-03T07:52:53.796Z,22.80
2022-08-03T07:55:24.498Z,22.80
2022-08-03T07:58:06.134Z,23.10
2022-08-03T08:00:34.660Z,23.50
2022-08-03T08:03:03.393Z,24.10
2022-08-03T08:05:32.134Z,24.50
2022-08-03T08:08:01.924Z,24.80
2022-08-03T08:10:30.504Z,25.10
2022-08-03T08:12:59.051Z,25.20
2022-08-03T08:15:27.327Z,25.00
2022-08-03T08:17:58.753Z,25.00
2022-08-03T08:20:31.415Z,25.40
2022-08-03T08:23:03.531Z,26.10
2022-08-03T08:25:45.433Z,26.90
2022-08-03T08:28:29.190Z,27.40
2022-08-03T08:31:01.363Z,27.80
2022-08-03T08:33:47.874Z,28.60
2022-08-03T08:36:17.749Z,29.20
2022-08-03T08:38:47.428Z,29.30
2022-08-03T08:41:16.659Z,29.70
2022-08-03T08:43:45.128Z,29.90
2022-08-03T08:46:23.463Z,30.50
2022-08-03T08:48:53.343Z,30.50
2022-08-03T08:51:23.449Z,30.40
2022-08-03T08:54:13.821Z,30.00
2022-08-03T08:56:42.077Z,29.70
2022-08-03T08:59:10.352Z,30.30
2022-08-03T09:01:38.555Z,30.40
2022-08-03T09:04:09.534Z,30.80
2022-08-03T09:06:37.785Z,31.10
2022-08-03T09:09:08.242Z,30.70
2022-08-03T09:12:00.463Z,31.10
2022-08-03T09:14:34.105Z,31.10
2022-08-03T09:17:16.975Z,31.30
2022-08-03T09:20:06.027Z,31.90
2022-08-03T09:22:34.547Z,31.80
2022-08-03T09:25:23.747Z,31.50
2022-08-03T09:27:53.691Z,31.20
2022-08-03T09:30:33.767Z,31.20
2022-08-03T09:33:04.275Z,31.60
2022-08-03T09:38:26.363Z,31.30
2022-08-03T09:40:59.445Z,31.30
2022-08-03T09:43:46.655Z,31.40
2022-08-03T09:46:14.844Z,31.40
2022-08-03T09:48:43.029Z,30.80
2022-08-03T09:51:33.358Z,29.40
2022-08-03T09:54:05.573Z,28.70
2022-08-03T09:56:43.330Z,28.20
2022-08-03T09:59:14.844Z,27.70
2022-08-03T10:01:43.276Z,27.50
2022-08-03T10:04:17.123Z,27.30
2022-08-03T10:06:46.427Z,27.40
2022-08-03T10:09:17.628Z,27.30
2022-08-03T10:11:47.598Z,27.20
2022-08-03T10:14:19.982Z,27.20
2022-08-03T10:16:49.145Z,26.80
2022-08-03T10:19:17.862Z,27.00
2022-08-03T10:21:50.918Z,27.00
2022-08-03T10:24:25.512Z,27.00
2022-08-03T10:26:58.105Z,26.90
2022-08-03T10:29:29.571Z,26.80
2022-08-03T10:32:00.546Z,26.70
2022-08-03T10:34:35.139Z,26.70
2022-08-03T10:37:09.042Z,27.00
2022-08-03T10:39:37.621Z,27.20
2022-08-03T10:42:14.501Z,27.50
2022-08-03T10:44:44.626Z,27.40
2022-08-03T10:47:13.069Z,27.20
2022-08-03T10:49:41.739Z,27.00
2022-08-03T10:52:13.711Z,27.00
2022-08-03T10:55:16.865Z,26.80
2022-08-03T10:57:48.911Z,26.50
2022-08-03T11:00:21.201Z,26.40
2022-08-03T11:03:11.181Z,26.30
2022-08-03T11:05:42.251Z,26.30
2022-08-03T11:08:24.988Z,26.50
2022-08-03T11:10:54.656Z,27.20
2022-08-03T11:13:25.104Z,27.90
2022-08-03T11:16:00.103Z,28.20
2022-08-03T11:18:31.607Z,28.70
2022-08-03T11:21:00.999Z,28.40
2022-08-03T11:24:04.598Z,28.00
2022-08-03T11:26:31.696Z,28.00
2022-08-03T11:29:28.961Z,28.10
2022-08-03T11:31:58.661Z,28.60
2022-08-03T11:34:27.383Z,28.60
2022-08-03T11:37:27.515Z,28.90
2022-08-03T11:39:58.241Z,29.50
2022-08-03T11:42:48.181Z,29.60
2022-08-03T11:45:16.631Z,30.20
2022-08-03T11:47:50.678Z,30.10
2022-08-03T11:50:21.305Z,29.80
2022-08-03T11:52:50.911Z,30.20
2022-08-03T11:55:21.988Z,30.30
2022-08-03T11:59:17.704Z,30.40
2022-08-03T12:00:38.918Z,29.90
2022-08-03T12:03:09.838Z,29.90
2022-08-03T12:05:51.732Z,30.00
2022-08-03T12:08:32.268Z,29.70
2022-08-03T12:11:03.147Z,29.60
2022-08-03T12:14:37.326Z,29.70
2022-08-03T12:16:28.845Z,29.70
2022-08-03T12:19:00.260Z,29.20
2022-08-03T12:21:28.963Z,29.20
2022-08-03T12:24:01.220Z,29.30
2022-08-03T12:26:30.317Z,29.20
2022-08-03T12:28:58.615Z,29.40
2022-08-03T12:31:26.832Z,29.50
2022-08-03T12:34:02.809Z,29.10
2022-08-03T12:36:32.922Z,29.10
2022-08-03T12:39:02.603Z,29.20
2022-08-03T12:41:34.138Z,29.10
2022-08-03T12:44:04.476Z,29.20
2022-08-03T12:46:34.872Z,29.00
2022-08-03T12:49:07.417Z,28.80
2022-08-03T12:51:37.640Z,28.60
2022-08-03T12:54:06.755Z,28.60
2022-08-03T12:56:35.171Z,28.60
2022-08-03T12:59:18.252Z,28.70
2022-08-03T13:01:55.294Z,28.80
2022-08-03T13:04:30.065Z,28.70
2022-08-03T13:07:03.526Z,28.60
2022-08-03T13:09:42.699Z,28.80
2022-08-03T13:12:13.206Z,28.80
2022-08-03T13:14:42.126Z,28.90
2022-08-03T13:17:10.796Z,29.00
2022-08-03T13:19:41.487Z,29.10
2022-08-03T13:22:13.748Z,28.90
2022-08-03T13:24:42.159Z,28.70
2022-08-03T13:28:01.233Z,28.70
2022-08-03T13:29:59.245Z,28.70
2022-08-03T13:32:27.466Z,28.50
2022-08-03T13:34:57.185Z,28.60
2022-08-03T13:37:25.840Z,28.30
2022-08-03T13:39:58.787Z,28.30
2022-08-03T13:42:29.469Z,28.40
2022-08-03T13:44:57.634Z,28.30
2022-08-03T13:47:25.936Z,28.10
2022-08-03T13:50:01.170Z,27.90
2022-08-03T13:52:32.714Z,27.80
2022-08-03T13:55:01.291Z,27.60
2022-08-03T13:58:04.030Z,27.30
2022-08-03T14:00:26.671Z,27.10
2022-08-03T14:03:03.999Z,27.00
2022-08-03T14:05:34.162Z,26.80
2022-08-03T14:08:05.639Z,26.70
2022-08-03T14:10:35.807Z,26.70
2022-08-03T14:13:04.238Z,26.60
2022-08-03T14:15:38.002Z,26.60
2022-08-03T14:18:15.393Z,26.50
2022-08-03T14:20:48.790Z,26.30
2022-08-03T14:23:20.010Z,26.20
2022-08-03T14:25:51.745Z,26.30
2022-08-03T14:28:23.639Z,26.20
2022-08-03T14:30:52.299Z,26.10
2022-08-03T14:33:20.542Z,26.10
2022-08-03T14:35:49.270Z,26.00
2022-08-03T14:38:17.915Z,25.90
2022-08-03T14:40:47.446Z,25.70
2022-08-03T14:43:17.943Z,25.60
2022-08-03T14:45:46.119Z,25.60
2022-08-03T14:50:27.954Z,25.40
2022-08-03T14:51:02.455Z,25.30
2022-08-03T14:53:30.673Z,25.20
2022-08-03T14:56:00.151Z,25.20
2022-08-03T14:58:28.378Z,25.10
2022-08-03T15:00:57.413Z,25.20
2022-08-03T15:03:26.446Z,25.00
2022-08-03T15:05:55.676Z,25.00
2022-08-03T15:08:25.675Z,25.00
2022-08-03T15:10:54.651Z,25.00
2022-08-03T15:13:25.355Z,25.00
2022-08-03T15:15:53.597Z,25.00
2022-08-03T15:18:21.675Z,25.00
2022-08-03T15:20:50.937Z,25.10
2022-08-03T15:23:19.741Z,25.00
2022-08-03T15:26:28.054Z,24.90
2022-08-03T15:28:38.706Z,24.80
2022-08-03T15:31:07.549Z,24.90
2022-08-03T15:33:35.661Z,25.00
2022-08-03T15:36:04.468Z,25.20
2022-08-03T15:38:32.602Z,25.30
2022-08-03T15:41:00.715Z,25.50
2022-08-03T15:43:28.857Z,25.60
2022-08-03T15:46:27.646Z,25.80
2022-08-03T15:48:47.424Z,25.90
2022-08-03T15:51:15.643Z,26.10
2022-08-03T15:53:43.846Z,26.20
2022-08-03T15:56:18.164Z,26.30
2022-08-03T15:59:03.691Z,26.40
2022-08-03T16:01:36.546Z,26.50
2022-08-03T16:04:04.877Z,26.50
2022-08-03T16:06:35.991Z,26.50
2022-08-03T16:09:22.856Z,26.50
2022-08-03T16:11:54.922Z,26.50
2022-08-03T16:14:32.338Z,26.50
2022-08-03T16:17:05.456Z,26.50
2022-08-03T16:19:33.644Z,26.30
2022-08-03T16:22:01.868Z,26.30
2022-08-03T16:24:31.821Z,26.10
2022-08-03T16:27:00.448Z,26.00
2022-08-03T16:29:29.581Z,25.90
2022-08-03T16:31:57.822Z,25.90
2022-08-03T16:34:27.310Z,25.70
2022-08-03T16:36:55.728Z,25.60
2022-08-03T16:39:23.966Z,25.60
2022-08-03T16:41:54.347Z,25.50
2022-08-03T16:44:30.046Z,25.30
2022-08-03T16:46:58.601Z,25.20
2022-08-03T16:49:55.161Z,25.10
2022-08-03T16:52:17.898Z,25.00
2022-08-03T16:54:50.701Z,24.90
2022-08-03T16:57:56.447Z,24.80
2022-08-03T17:00:33.890Z,24.60
2022-08-03T17:03:04.042Z,24.60
2022-08-03T17:05:47.397Z,24.50
2022-08-03T17:08:16.067Z,24.40
2022-08-03T17:10:45.443Z,24.20
2022-08-03T17:13:20.789Z,24.10
2022-08-03T17:16:01.591Z,24.00
2022-08-03T17:18:35.201Z,24.00
2022-08-03T17:21:08.018Z,23.90
2022-08-03T17:23:45.482Z,23.80
2022-08-03T17:26:21.560Z,23.80
2022-08-03T17:28:57.690Z,23.70
2022-08-03T17:31:31.355Z,23.70
2022-08-03T17:34:04.485Z,23.60
2022-08-03T17:37:02.672Z,23.50
2022-08-03T17:39:42.131Z,23.50
2022-08-03T17:42:29.006Z,23.40
2022-08-03T17:45:02.539Z,23.30
2022-08-03T17:47:42.735Z,23.20
2022-08-03T17:50:25.026Z,23.10
2022-08-03T17:53:01.509Z,22.90
2022-08-03T17:55:56.441Z,22.90
2022-08-03T17:58:43.695Z,22.80
2022-08-03T18:02:03.647Z,22.80
2022-08-03T18:04:29.848Z,22.70
2022-08-03T18:07:11.278Z,22.50
2022-08-03T18:10:04.288Z,22.40
2022-08-03T18:12:42.823Z,22.30
2022-08-03T18:15:22.153Z,22.20
2022-08-03T18:17:55.200Z,22.10
2022-08-03T18:20:33.172Z,22.20
2022-08-03T18:23:10.282Z,22.00
2022-08-03T18:25:50.057Z,21.90
2022-08-03T18:28:23.105Z,21.80
2022-08-03T18:30:54.133Z,21.70
2022-08-03T18:34:19.855Z,21.60
2022-08-03T18:39:03.253Z,21.50
2022-08-03T18:44:52.820Z,21.40
2022-08-03T18:47:25.294Z,21.20
2022-08-03T18:50:08.386Z,21.10
2022-08-03T18:52:45.697Z,21.00
2022-08-03T18:55:20.591Z,20.80
2022-08-03T18:57:56.693Z,20.90
2022-08-03T19:00:34.249Z,20.80
2022-08-03T19:03:24.823Z,20.70
2022-08-03T19:06:14.589Z,20.60
2022-08-03T19:08:50.912Z,20.50
2022-08-03T19:11:28.290Z,20.50
2022-08-03T19:14:00.504Z,20.40
2022-08-03T19:16:35.658Z,20.30
2022-08-03T19:19:10.944Z,20.30
2022-08-03T19:21:42.803Z,20.30
2022-08-03T19:24:12.755Z,20.10
2022-08-03T19:26:42.370Z,20.10
2022-08-03T19:29:15.336Z,20.00
2022-08-03T19:31:58.942Z,19.90
2022-08-03T19:34:29.222Z,19.80
2022-08-03T19:36:58.415Z,19.70
2022-08-03T19:39:27.283Z,19.80
2022-08-03T19:42:08.116Z,19.60
2022-08-03T19:44:41.009Z,19.60
2022-08-03T19:47:17.147Z,19.60
2022-08-03T19:49:56.982Z,19.50
2022-08-03T19:52:36.706Z,19.50
2022-08-03T19:55:09.481Z,19.40
2022-08-03T19:57:43.863Z,19.40
2022-08-03T20:00:19.523Z,19.40
2022-08-03T20:02:50.907Z,19.30
2022-08-03T20:05:19.563Z,19.30
2022-08-03T20:07:48.679Z,19.20
2022-08-03T20:10:17.966Z,19.10
2022-08-03T20:12:47.160Z,19.10
2022-08-03T20:15:18.260Z,19.00
2022-08-03T20:17:59.275Z,19.00
2022-08-03T20:20:29.903Z,19.00
2022-08-03T20:22:59.865Z,18.90
2022-08-03T20:25:38.297Z,18.90
2022-08-03T20:28:14.615Z,18.90
2022-08-03T20:30:47.306Z,18.80
2022-08-03T20:33:18.630Z,18.90
2022-08-03T20:35:49.763Z,18.70
2022-08-03T20:38:19.064Z,18.80
2022-08-03T20:40:48.300Z,18.70
2022-08-03T20:43:19.985Z,18.70
2022-08-03T20:45:59.761Z,18.70
2022-08-03T20:48:38.305Z,18.60
2022-08-03T20:54:00.204Z,18.60
2022-08-03T20:56:33.527Z,18.60
2022-08-03T20:59:04.854Z,18.50
2022-08-03T21:01:36.147Z,18.60
2022-08-03T21:04:06.749Z,18.40
2022-08-03T21:06:39.678Z,18.40
2022-08-03T21:09:09.441Z,18.40
2022-08-03T21:11:44.264Z,18.40
2022-08-03T21:12:58.650Z,21.50
2022-08-03T21:12:58.870Z,21.40
2022-08-03T21:13:07.508Z,18.60
2022-08-03T21:14:18.231Z,18.30
2022-08-03T21:16:51.544Z,18.30
2022-08-03T21:19:22.341Z,18.30
2022-08-03T21:21:50.952Z,18.30
2022-08-03T21:24:22.815Z,18.30
2022-08-03T21:26:54.787Z,18.30
2022-08-03T21:29:23.092Z,18.30
2022-08-03T21:31:52.636Z,18.20
2022-08-03T21:34:21.797Z,18.20
2022-08-03T21:36:50.605Z,18.20
2022-08-03T21:39:18.819Z,18.20
2022-08-03T21:41:47.403Z,18.20
2022-08-03T21:44:18.185Z,18.20
2022-08-03T21:47:00.105Z,18.10
2022-08-03T21:50:04.203Z,18.20
2022-08-03T21:52:23.732Z,18.10
2022-08-03T21:54:55.276Z,18.00
2022-08-03T21:57:26.001Z,18.00
2022-08-03T21:59:55.827Z,18.00
2022-08-03T22:02:31.400Z,18.00
2022-08-03T22:05:00.666Z,17.90
2022-08-03T22:07:33.742Z,17.90
2022-08-03T22:10:03.978Z,17.80
